»·PEaware :: N112PC KONP-KOLM

N112PC :: KONP-KOLM

FLIGHT INFORMATION

Flight Status: Arrived
Operator: Privately registered:
United States
More flights under this callsign
Pilot: Gabor H. (24209)
Aircraft: PILATUS PC-12 EAGLE
(PC12)
More flights by this aircraft type
Origin: KONP Newport Mun
United States
Destination: KOLM Olympia
United States
More flights between these airports :: More routes between these airports
Route: +CUTEL V27 AST V187 OLM
File this flight plan on PilotEdge
Remarks:
Altitude:
(Current/Filed)
17,000ft
Speed:
(Current/Filed)
240kts
Departed: 20-May-19 11:53 AM
Arrived: 20-May-19 12:34 PM
Distance/Time
Traveled:
152nm/0:41
Distance/Time
To Go:
Arrived

Flight Plot

Page will automatically refresh every two minutes.

Flight plan parsing failed; only flown route is shown


Map Options




Map Legend


Flown Route
Filed Route
Departure Airport
Arrival Airport
Navaid (VOR, NDB)
Fix

Horizontal Profiles

Position Reports

Time Latitude Longitude Heading Altitude Ground
Speed
20-May-19 11:41 44.577681 -124.061488 267 141ft 0kts
20-May-19 11:42 44.577681 -124.061488 267 141ft 0kts
20-May-19 11:43 44.577681 -124.061488 267 141ft 0kts
20-May-19 11:44 44.577681 -124.061508 267 141ft 0kts
20-May-19 11:45 44.577681 -124.061508 267 141ft 0kts
20-May-19 11:46 44.577681 -124.061507 267 141ft 0kts
20-May-19 11:47 44.577681 -124.061507 267 141ft 0kts
20-May-19 11:48 44.577681 -124.061507 267 141ft 0kts
20-May-19 11:49 44.577681 -124.061507 267 141ft 0kts
20-May-19 11:50 44.578909 -124.060037 359 141ft 11kts
20-May-19 11:51 44.584972 -124.060477 356 141ft 10kts
20-May-19 11:52 44.582676 -124.059037 177 175ft 77kts
20-May-19 11:53 44.576202 -124.030043 40 2018ft 168kts
20-May-19 11:54 44.621949 -124.033001 336 3595ft 170kts
20-May-19 11:55 44.668685 -124.046261 355 5099ft 175kts
20-May-19 11:56 44.720344 -124.043504 2 5565ft 185kts
20-May-19 11:57 44.770099 -124.038386 2 6535ft 180kts
20-May-19 11:58 44.820558 -124.032957 2 7701ft 182kts
20-May-19 11:59 44.877687 -124.026903 2 9259ft 222kts
20-May-19 12:00 44.941884 -124.019993 3 10797ft 244kts
20-May-19 12:01 45.010067 -124.012309 4 12276ft 248kts
20-May-19 12:02 45.079559 -124.004429 4 13786ft 251kts
20-May-19 12:03 45.149808 -123.996507 5 15285ft 254kts
20-May-19 12:04 45.220488 -123.988617 5 16761ft 257kts
20-May-19 12:05 45.295767 -123.980113 5 16971ft 283kts
20-May-19 12:06 45.375374 -123.971118 5 16965ft 289kts
20-May-19 12:07 45.455934 -123.961973 5 16961ft 290kts
20-May-19 12:08 45.536512 -123.952741 5 16955ft 291kts
20-May-19 12:09 45.617193 -123.943476 5 16949ft 291kts
20-May-19 12:10 45.697969 -123.934380 5 16938ft 291kts
20-May-19 12:11 45.778798 -123.925150 5 16934ft 292kts
20-May-19 12:12 45.859888 -123.915807 5 16930ft 292kts
20-May-19 12:13 45.941175 -123.906272 5 16945ft 291kts
20-May-19 12:14 46.021677 -123.897189 5 17007ft 287kts
20-May-19 12:15 46.099996 -123.888029 5 17002ft 281kts
20-May-19 12:16 46.173681 -123.858432 33 17002ft 276kts
20-May-19 12:17 46.235512 -123.793154 41 17002ft 275kts
20-May-19 12:18 46.294803 -123.722958 42 17006ft 274kts
20-May-19 12:19 46.353584 -123.652479 42 17004ft 275kts
20-May-19 12:20 46.414302 -123.579654 41 16156ft 290kts
20-May-19 12:21 46.476623 -123.505083 41 15059ft 289kts
20-May-19 12:22 46.537533 -123.431619 41 13860ft 281kts
20-May-19 12:23 46.597027 -123.359518 41 12635ft 276kts
20-May-19 12:24 46.655661 -123.288725 41 11137ft 271kts
20-May-19 12:25 46.713120 -123.218795 40 9631ft 265kts
20-May-19 12:26 46.768816 -123.150773 40 8132ft 255kts
20-May-19 12:27 46.822106 -123.085794 40 6633ft 244kts
20-May-19 12:28 46.873377 -123.022662 40 5158ft 239kts
20-May-19 12:29 46.921930 -122.962209 41 3330ft 223kts
20-May-19 12:30 46.968118 -122.905028 42 1358ft 211kts
20-May-19 12:31 47.003988 -122.886352 275 772ft 108kts
20-May-19 12:32 46.985897 -122.899548 188 432ft 67kts
20-May-19 12:33 46.970227 -122.904082 191 201ft 25kts
20-May-19 12:34 46.967309 -122.902456 89 201ft 16kts
20-May-19 12:35 46.970530 -122.899524 48 201ft 22kts
20-May-19 12:36 46.974097 -122.898219 324 201ft 12kts
20-May-19 12:37 46.974881 -122.898206 138 201ft 0kts
20-May-19 12:38 46.974881 -122.898206 138 201ft 0kts

Navigation Log

Ident Type
Flight plan parsing failed, navigation log unavailable